createdAt,value
2023-01-12T00:12:06.783Z,9.60
2023-01-12T00:26:06.698Z,8.50
2023-01-12T00:40:06.726Z,8.00
2023-01-12T00:54:06.767Z,7.40
2023-01-12T01:08:06.778Z,7.00
2023-01-12T01:22:06.782Z,6.20
2023-01-12T01:36:06.775Z,5.50
2023-01-12T01:50:06.946Z,5.20
2023-01-12T02:04:06.919Z,5.00
2023-01-12T02:18:06.971Z,4.70
2023-01-12T02:32:07.046Z,4.00
2023-01-12T02:46:07.048Z,4.10
2023-01-12T03:00:07.055Z,3.60
2023-01-12T03:14:07.113Z,3.70
2023-01-12T03:28:07.062Z,3.10
2023-01-12T03:42:07.119Z,2.80
2023-01-12T03:56:07.146Z,2.80
2023-01-12T04:10:07.116Z,2.70
2023-01-12T04:24:07.174Z,2.15
2023-01-12T04:38:07.156Z,2.20
2023-01-12T04:52:07.160Z,2.20
2023-01-12T05:06:07.145Z,2.10
2023-01-12T05:20:07.216Z,1.70
2023-01-12T05:34:07.213Z,1.80
2023-01-12T05:48:07.219Z,1.50
2023-01-12T06:02:07.291Z,1.50
2023-01-12T06:16:07.365Z,1.30
2023-01-12T06:30:07.284Z,1.40
2023-01-12T06:45:07.298Z,1.30
2023-01-12T07:00:07.348Z,2.10
2023-01-12T07:15:07.356Z,3.10
2023-01-12T07:30:07.355Z,3.00
2023-01-12T07:45:07.405Z,2.90
2023-01-12T08:00:07.460Z,3.30
2023-01-12T08:15:09.408Z,4.80
2023-01-12T08:30:07.850Z,5.00
2023-01-12T08:45:08.003Z,5.30
2023-01-12T09:00:08.887Z,5.60
2023-01-12T09:15:08.799Z,5.30
2023-01-12T09:30:08.980Z,5.10
2023-01-12T09:45:08.929Z,4.95
2023-01-12T10:00:08.914Z,4.60
2023-01-12T10:15:08.885Z,4.40
2023-01-12T10:26:16.660Z,4.20
2023-01-12T10:41:16.549Z,4.50
2023-01-12T10:56:16.616Z,4.00
2023-01-12T11:11:16.651Z,4.00
2023-01-12T11:26:17.973Z,3.70
2023-01-12T11:41:19.093Z,3.55
2023-01-12T11:56:17.805Z,3.50
2023-01-12T12:11:17.573Z,3.50
2023-01-12T12:26:17.499Z,3.40
2023-01-12T12:41:18.242Z,3.90
2023-01-12T12:56:18.071Z,4.30
2023-01-12T13:12:19.075Z,4.50
2023-01-12T13:27:17.915Z,4.00
2023-01-12T13:42:17.866Z,4.15
2023-01-12T13:57:18.057Z,4.20
2023-01-12T14:12:18.674Z,4.40
2023-01-12T14:27:18.666Z,5.10
2023-01-12T14:43:18.227Z,99.80
2023-01-12T14:58:18.239Z,93.60
2023-01-12T15:13:18.282Z,89.00
2023-01-12T15:29:18.271Z,83.35
2023-01-12T15:44:18.309Z,76.90
2023-01-12T15:59:18.310Z,69.20
2023-01-12T16:14:18.351Z,62.00
2023-01-12T16:29:18.431Z,55.70
2023-01-12T16:43:18.538Z,51.30
2023-01-12T16:58:18.573Z,44.20
2023-01-12T17:12:18.615Z,42.70
2023-01-12T17:26:19.005Z,37.70
2023-01-12T17:40:19.116Z,35.40
2023-01-12T17:54:18.777Z,33.10
2023-01-12T18:08:18.804Z,30.90
2023-01-12T18:22:18.785Z,28.80
2023-01-12T18:36:18.869Z,26.60
2023-01-12T18:51:18.898Z,24.30
2023-01-12T19:05:18.986Z,23.90
2023-01-12T19:19:18.886Z,22.30
2023-01-12T19:33:18.894Z,21.50
2023-01-12T19:47:18.929Z,20.40
2023-01-12T20:01:19.211Z,19.60
2023-01-12T20:15:19.480Z,19.00
2023-01-12T20:29:19.040Z,17.90
2023-01-12T20:43:19.100Z,16.60
2023-01-12T20:57:19.104Z,16.20
2023-01-12T21:11:19.155Z,14.70
2023-01-12T21:25:19.160Z,14.20
2023-01-12T21:39:19.180Z,13.10
2023-01-12T21:53:19.220Z,12.40
2023-01-12T22:07:19.138Z,11.90
2023-01-12T22:21:19.177Z,11.50
2023-01-12T22:35:19.371Z,11.30
2023-01-12T22:49:19.174Z,11.10
2023-01-12T23:03:19.267Z,10.70
2023-01-12T23:17:19.174Z,10.20
2023-01-12T23:31:19.256Z,9.50
2023-01-12T23:45:19.229Z,9.20
2023-01-12T23:59:19.214Z,9.00
